Eastend, Canada
Current Conditions -  °F | °C
As of 7:18 AM on Thursday 30 Oct 2014 (Local Time) from CYYN Reporting Station
Haze Haze  
Wind Chill: 22°   Ceiling: 300
Heat Index: 30°   Visibility: 3mi
Dew Point: 30°   Wind: 9mph
Humidity: 100%   Direction: 100°E
Pressure: 30.3"   Gusts: NA
Location:  49.52°N, 108.82°W
Report Text: CYYN 301318Z AUTO 10008KT 3SM BR OVC003 M01/M01 A3030 RMK SLP296
Loading
Personal Weather Stations






























Interactive Weather Map
Tropical Storm Tracking
New forecast layout! Learn more

10-Day Weather Forecast

Advertisements
Track Severe Weather on mobile